createdAt,value
2023-06-30T00:02:31.184Z,2.70
2023-06-30T00:05:17.037Z,2.63
2023-06-30T00:08:02.786Z,2.70
2023-06-30T00:10:48.670Z,2.90
2023-06-30T00:13:34.819Z,2.60
2023-06-30T00:16:21.455Z,2.80
2023-06-30T00:19:07.602Z,2.70
2023-06-30T00:21:55.272Z,2.50
2023-06-30T00:24:41.506Z,2.65
2023-06-30T00:27:27.495Z,2.88
2023-06-30T00:30:13.416Z,2.63
2023-06-30T00:32:59.736Z,2.88
2023-06-30T00:35:46.184Z,2.50
2023-06-30T00:38:33.778Z,2.50
2023-06-30T00:41:19.900Z,2.50
2023-06-30T00:44:05.694Z,2.35
2023-06-30T00:46:51.625Z,2.78
2023-06-30T00:49:37.352Z,2.80
2023-06-30T00:52:25.351Z,2.95
2023-06-30T00:55:11.586Z,2.38
2023-06-30T00:57:57.679Z,2.42
2023-06-30T01:00:43.648Z,2.40
2023-06-30T01:03:40.629Z,2.90
2023-06-30T01:07:02.109Z,2.50
2023-06-30T01:10:08.753Z,2.72
2023-06-30T01:12:55.091Z,2.80
2023-06-30T01:15:43.571Z,2.50
2023-06-30T01:18:33.752Z,2.88
2023-06-30T01:21:20.483Z,2.78
2023-06-30T01:24:08.491Z,2.40
2023-06-30T01:26:54.718Z,2.70
2023-06-30T01:29:43.585Z,2.80
2023-06-30T01:32:30.861Z,2.60
2023-06-30T01:35:16.857Z,2.38
2023-06-30T01:38:03.505Z,2.97
2023-06-30T01:40:50.755Z,2.70
2023-06-30T01:43:36.989Z,2.47
2023-06-30T01:46:23.120Z,2.38
2023-06-30T01:49:10.926Z,2.70
2023-06-30T01:51:58.522Z,2.70
2023-06-30T01:54:44.429Z,2.83
2023-06-30T01:57:30.482Z,2.70
2023-06-30T02:00:16.584Z,2.78
2023-06-30T02:03:02.434Z,2.70
2023-06-30T02:05:48.614Z,2.70
2023-06-30T02:08:34.906Z,2.60
2023-06-30T02:11:21.846Z,2.70
2023-06-30T02:14:08.963Z,2.70
2023-06-30T02:16:55.224Z,2.55
2023-06-30T02:19:41.748Z,2.90
2023-06-30T02:22:28.147Z,2.42
2023-06-30T02:25:13.913Z,3.03
2023-06-30T02:27:59.758Z,2.65
2023-06-30T02:30:45.905Z,2.80
2023-06-30T02:33:32.261Z,2.40
2023-06-30T02:36:18.204Z,2.53
2023-06-30T02:39:06.122Z,2.90
2023-06-30T02:41:52.502Z,2.90
2023-06-30T02:44:38.731Z,2.90
2023-06-30T02:47:24.974Z,2.90
2023-06-30T02:50:11.709Z,3.28
2023-06-30T02:53:01.437Z,2.70
2023-06-30T02:55:48.114Z,2.80
2023-06-30T02:58:37.631Z,3.47
2023-06-30T03:01:25.837Z,2.75
2023-06-30T03:04:19.378Z,3.22
2023-06-30T03:07:05.577Z,3.25
2023-06-30T03:09:51.779Z,3.22
2023-06-30T03:12:38.593Z,2.88
2023-06-30T03:15:25.091Z,2.80
2023-06-30T03:18:11.516Z,3.05
2023-06-30T03:20:58.578Z,2.75
2023-06-30T03:23:44.700Z,2.88
2023-06-30T03:26:30.940Z,2.88
2023-06-30T03:29:17.083Z,2.90
2023-06-30T03:32:05.696Z,2.80
2023-06-30T03:34:53.312Z,2.83
2023-06-30T03:37:39.944Z,2.70
2023-06-30T03:40:26.569Z,2.85
2023-06-30T03:43:13.082Z,2.83
2023-06-30T03:45:59.062Z,2.83
2023-06-30T03:48:46.736Z,2.92
2023-06-30T03:51:33.412Z,2.90
2023-06-30T03:54:19.414Z,3.63
2023-06-30T03:57:05.628Z,3.35
2023-06-30T03:59:52.873Z,3.22
2023-06-30T04:02:39.428Z,3.20
2023-06-30T04:05:26.658Z,3.00
2023-06-30T04:08:12.696Z,2.90
2023-06-30T04:10:58.808Z,3.35
2023-06-30T04:13:44.938Z,3.22
2023-06-30T04:16:33.091Z,3.70
2023-06-30T04:19:23.401Z,3.35
2023-06-30T04:22:15.593Z,3.40
2023-06-30T04:25:05.674Z,3.22
2023-06-30T04:27:51.994Z,3.47
2023-06-30T04:30:41.418Z,3.50
2023-06-30T04:33:27.301Z,4.43
2023-06-30T04:36:14.504Z,3.50
2023-06-30T04:39:00.438Z,3.03
2023-06-30T04:41:54.890Z,3.50
2023-06-30T04:44:41.667Z,3.50
2023-06-30T04:47:29.128Z,3.72
2023-06-30T04:50:19.545Z,3.55
2023-06-30T04:53:05.744Z,3.40
2023-06-30T04:55:52.790Z,2.90
2023-06-30T04:58:38.978Z,3.42
2023-06-30T05:01:24.964Z,2.92
2023-06-30T05:04:11.179Z,3.30
2023-06-30T05:06:57.478Z,3.47
2023-06-30T05:09:43.742Z,3.80
2023-06-30T05:12:29.961Z,3.20
2023-06-30T05:15:16.090Z,3.45
2023-06-30T05:18:02.324Z,3.80
2023-06-30T05:20:48.392Z,3.38
2023-06-30T05:23:35.390Z,3.47
2023-06-30T05:26:21.467Z,3.13
2023-06-30T05:29:08.021Z,3.72
2023-06-30T05:31:54.201Z,3.45
2023-06-30T05:34:43.444Z,3.25
2023-06-30T05:37:29.533Z,3.10
2023-06-30T05:40:15.509Z,3.70
2023-06-30T05:43:01.455Z,3.10
2023-06-30T05:45:50.945Z,3.80
2023-06-30T05:48:37.264Z,3.30
2023-06-30T05:51:23.435Z,3.22
2023-06-30T05:54:11.569Z,3.67
2023-06-30T05:56:57.623Z,3.47
2023-06-30T05:59:44.438Z,3.97
2023-06-30T06:02:30.451Z,4.10
2023-06-30T06:05:18.704Z,4.05
2023-06-30T06:08:05.854Z,4.32
2023-06-30T06:10:52.193Z,4.25
2023-06-30T06:13:39.078Z,4.68
2023-06-30T06:16:24.962Z,4.50
2023-06-30T06:19:11.112Z,5.35
2023-06-30T06:21:57.149Z,4.82
2023-06-30T06:24:42.821Z,4.13
2023-06-30T06:27:34.662Z,4.78
2023-06-30T06:30:20.738Z,4.75
2023-06-30T06:33:07.094Z,5.40
2023-06-30T06:35:53.651Z,6.60
2023-06-30T06:38:41.076Z,4.10
2023-06-30T06:41:27.225Z,4.47
2023-06-30T06:44:13.351Z,4.05
2023-06-30T06:47:37.556Z,4.20
2023-06-30T06:50:23.867Z,3.70
2023-06-30T06:53:10.039Z,3.78
2023-06-30T06:55:57.406Z,5.30
2023-06-30T06:58:43.612Z,9.27
2023-06-30T07:01:31.648Z,17.50
2023-06-30T07:04:18.083Z,6.03
2023-06-30T07:07:04.258Z,5.22
2023-06-30T07:09:51.241Z,6.82
2023-06-30T07:12:37.348Z,6.78
2023-06-30T07:15:23.691Z,4.68
2023-06-30T07:18:09.684Z,7.13
2023-06-30T07:20:56.110Z,6.65
2023-06-30T07:23:42.272Z,5.72
2023-06-30T07:26:28.514Z,25.73
2023-06-30T07:29:14.779Z,8.05
2023-06-30T07:32:01.063Z,6.15
2023-06-30T07:34:47.024Z,6.53
2023-06-30T07:37:32.896Z,4.88
2023-06-30T07:40:21.916Z,5.35
2023-06-30T07:43:08.921Z,3.85
2023-06-30T07:45:55.001Z,3.97
2023-06-30T07:48:41.042Z,4.47
2023-06-30T07:51:26.880Z,3.95
2023-06-30T07:54:12.824Z,4.18
2023-06-30T07:56:59.086Z,4.93
2023-06-30T07:59:45.335Z,4.38
2023-06-30T08:02:31.480Z,4.13
2023-06-30T08:05:17.890Z,4.38
2023-06-30T08:08:04.508Z,4.00
2023-06-30T08:10:50.751Z,4.63
2023-06-30T08:13:36.570Z,4.80
2023-06-30T08:16:22.546Z,4.05
2023-06-30T08:19:08.571Z,4.35
2023-06-30T08:22:19.281Z,4.38
2023-06-30T08:25:05.909Z,4.35
2023-06-30T08:27:53.105Z,3.92
2023-06-30T08:30:39.235Z,3.63
2023-06-30T08:36:20.470Z,4.28
2023-06-30T08:39:06.086Z,4.53
2023-06-30T08:41:54.975Z,3.92
2023-06-30T08:44:44.993Z,4.55
2023-06-30T08:47:33.020Z,4.30
2023-06-30T08:50:21.107Z,4.13
2023-06-30T08:53:07.042Z,5.10
2023-06-30T08:55:53.636Z,3.65
2023-06-30T08:58:39.330Z,4.53
2023-06-30T09:01:26.090Z,3.58
2023-06-30T09:04:13.431Z,4.18
2023-06-30T09:07:01.501Z,4.20
2023-06-30T09:09:47.864Z,4.50
2023-06-30T09:12:34.028Z,4.60
2023-06-30T09:15:21.377Z,3.92
2023-06-30T09:18:07.651Z,3.60
2023-06-30T09:20:56.080Z,3.88
2023-06-30T09:23:42.694Z,4.40
2023-06-30T09:26:32.454Z,4.43
2023-06-30T09:29:50.179Z,4.80
2023-06-30T09:32:39.993Z,6.20
2023-06-30T09:35:26.019Z,6.55
2023-06-30T09:38:16.235Z,5.18
2023-06-30T09:41:21.081Z,5.10
2023-06-30T09:44:07.045Z,4.40
2023-06-30T09:46:54.454Z,4.20
2023-06-30T09:49:55.416Z,4.25
2023-06-30T09:52:42.246Z,4.28
2023-06-30T09:55:28.117Z,4.50
2023-06-30T09:59:19.619Z,4.40
2023-06-30T10:02:06.047Z,4.50
2023-06-30T10:04:52.137Z,3.72
2023-06-30T10:07:51.114Z,3.55
2023-06-30T10:10:37.278Z,3.75
2023-06-30T10:14:31.695Z,3.70
2023-06-30T10:17:17.625Z,4.10
2023-06-30T10:20:07.289Z,4.00
2023-06-30T10:28:02.179Z,3.88
2023-06-30T10:40:30.362Z,3.75
2023-06-30T10:43:18.614Z,3.95
2023-06-30T10:50:41.390Z,4.00
2023-06-30T10:53:28.186Z,4.10
2023-06-30T10:56:14.514Z,3.55
2023-06-30T10:59:00.606Z,3.72
2023-06-30T11:02:24.650Z,3.50
2023-06-30T11:05:22.826Z,3.50
2023-06-30T11:08:10.510Z,3.65
2023-06-30T11:11:02.822Z,3.22
2023-06-30T11:13:48.874Z,4.00
2023-06-30T11:17:07.969Z,4.20
2023-06-30T11:20:03.185Z,3.58
2023-06-30T11:23:05.049Z,4.30
2023-06-30T11:25:50.855Z,5.38
2023-06-30T11:28:38.163Z,6.60
2023-06-30T11:31:24.129Z,5.90
2023-06-30T11:34:11.463Z,3.92
2023-06-30T11:36:57.335Z,4.43
2023-06-30T11:39:53.711Z,12.52
2023-06-30T11:42:43.399Z,14.50
2023-06-30T11:45:31.580Z,6.47
2023-06-30T11:48:17.730Z,6.60
2023-06-30T11:51:03.914Z,7.15
2023-06-30T11:53:53.093Z,13.55
2023-06-30T11:56:42.022Z,4.38
2023-06-30T11:59:28.391Z,4.32
2023-06-30T12:02:14.273Z,5.60
2023-06-30T12:05:00.516Z,4.75
2023-06-30T12:07:47.933Z,3.70
2023-06-30T12:10:38.643Z,3.38
2023-06-30T12:13:29.283Z,3.60
2023-06-30T12:16:15.159Z,3.35
2023-06-30T12:19:07.113Z,3.50
2023-06-30T12:22:10.710Z,3.85
2023-06-30T12:25:00.953Z,3.78
2023-06-30T12:27:46.742Z,3.92
2023-06-30T12:30:34.135Z,3.90
2023-06-30T12:33:20.985Z,3.70
2023-06-30T12:36:07.743Z,3.33
2023-06-30T12:38:54.007Z,3.58
2023-06-30T12:41:40.931Z,3.60
2023-06-30T12:44:29.056Z,3.55
2023-06-30T12:47:15.039Z,3.50
2023-06-30T12:50:01.275Z,3.63
2023-06-30T12:52:48.732Z,2.90
2023-06-30T12:55:43.221Z,3.20
2023-06-30T12:58:29.120Z,2.97
2023-06-30T13:01:20.604Z,3.20
2023-06-30T13:04:06.812Z,3.47
2023-06-30T13:06:53.203Z,3.15
2023-06-30T13:09:39.818Z,3.15
2023-06-30T13:12:27.593Z,3.00
2023-06-30T13:15:13.795Z,3.00
2023-06-30T13:18:00.863Z,3.13
2023-06-30T13:20:46.974Z,4.50
2023-06-30T13:23:37.573Z,3.63
2023-06-30T13:26:23.802Z,3.72
2023-06-30T13:29:11.694Z,3.10
2023-06-30T13:31:58.015Z,2.97
2023-06-30T13:34:45.395Z,3.13
2023-06-30T13:37:31.233Z,2.90
2023-06-30T13:40:17.435Z,2.78
2023-06-30T13:43:06.800Z,3.45
2023-06-30T13:45:52.936Z,2.75
2023-06-30T13:48:39.645Z,2.50
2023-06-30T13:51:25.731Z,2.45
2023-06-30T13:54:12.021Z,2.70
2023-06-30T13:56:58.333Z,2.75
2023-06-30T13:59:44.589Z,4.25
2023-06-30T14:02:34.320Z,4.03
2023-06-30T14:05:53.504Z,3.72
2023-06-30T14:09:46.766Z,3.67
2023-06-30T14:12:32.640Z,3.28
2023-06-30T14:15:20.800Z,3.10
2023-06-30T14:18:09.645Z,2.90
2023-06-30T14:20:56.740Z,2.70
2023-06-30T14:23:42.993Z,3.50
2023-06-30T14:26:30.916Z,3.13
2023-06-30T14:29:16.900Z,2.45
2023-06-30T14:32:03.652Z,3.00
2023-06-30T14:34:49.713Z,3.35
2023-06-30T14:38:22.115Z,3.58
2023-06-30T14:41:13.309Z,3.17
2023-06-30T14:44:01.531Z,2.28
2023-06-30T14:47:25.198Z,2.85
2023-06-30T14:50:12.677Z,3.13
2023-06-30T14:52:59.167Z,3.10
2023-06-30T14:55:45.405Z,3.90
2023-06-30T14:58:31.391Z,3.28
2023-06-30T15:01:18.646Z,3.95
2023-06-30T15:04:04.868Z,4.38
2023-06-30T15:06:51.120Z,4.68
2023-06-30T15:09:39.018Z,4.50
2023-06-30T15:12:25.771Z,4.07
2023-06-30T15:15:11.784Z,3.95
2023-06-30T15:18:01.222Z,5.00
2023-06-30T15:20:47.776Z,32.92
2023-06-30T15:23:33.896Z,41.78
2023-06-30T15:26:20.309Z,36.85
2023-06-30T15:29:07.706Z,17.23
2023-06-30T15:31:55.220Z,22.83
2023-06-30T15:34:41.668Z,16.50
2023-06-30T15:37:27.887Z,30.40
2023-06-30T15:40:14.640Z,14.48
2023-06-30T15:43:02.637Z,9.07
2023-06-30T15:45:53.029Z,7.70
2023-06-30T15:48:39.000Z,4.50
2023-06-30T15:51:25.235Z,18.35
2023-06-30T15:54:12.494Z,25.98
2023-06-30T15:56:58.430Z,28.33
2023-06-30T16:00:49.818Z,24.83
2023-06-30T16:03:38.970Z,22.38
2023-06-30T16:06:30.268Z,21.42
2023-06-30T16:09:16.100Z,14.88
2023-06-30T16:12:39.789Z,12.18
2023-06-30T16:15:25.919Z,7.32
2023-06-30T16:18:12.148Z,9.63
2023-06-30T16:20:59.593Z,13.48
2023-06-30T16:23:46.021Z,24.10
2023-06-30T16:26:54.115Z,22.33
2023-06-30T16:29:39.951Z,28.67
2023-06-30T16:33:05.475Z,26.48
2023-06-30T16:35:51.442Z,22.17
2023-06-30T16:38:40.691Z,18.58
2023-06-30T16:41:26.693Z,20.65
2023-06-30T16:45:20.377Z,6.60
2023-06-30T16:48:07.738Z,13.30
2023-06-30T16:50:56.782Z,13.57
2023-06-30T16:53:43.034Z,12.00
2023-06-30T16:57:03.300Z,17.65
2023-06-30T16:59:49.222Z,8.10
2023-06-30T17:02:36.046Z,9.35
2023-06-30T17:05:25.228Z,7.00
2023-06-30T17:08:11.300Z,11.10
2023-06-30T17:10:57.506Z,7.38
2023-06-30T17:13:43.930Z,6.18
2023-06-30T17:16:30.297Z,5.18
2023-06-30T17:19:16.619Z,4.03
2023-06-30T17:22:03.309Z,3.88
2023-06-30T17:24:49.257Z,3.95
2023-06-30T17:27:35.413Z,3.72
2023-06-30T17:30:21.363Z,3.78
2023-06-30T17:33:08.552Z,3.97
2023-06-30T17:35:55.458Z,3.88
2023-06-30T17:38:41.273Z,4.82
2023-06-30T17:41:27.267Z,5.72
2023-06-30T17:44:13.546Z,7.10
2023-06-30T17:47:01.380Z,8.43
2023-06-30T17:49:48.395Z,9.75
2023-06-30T17:52:34.651Z,10.43
2023-06-30T17:55:21.461Z,10.25
2023-06-30T17:58:08.132Z,9.98
2023-06-30T18:00:54.021Z,8.45
2023-06-30T18:03:40.103Z,8.75
2023-06-30T18:06:27.550Z,8.43
2023-06-30T18:09:13.524Z,7.95
2023-06-30T18:12:02.791Z,8.25
2023-06-30T18:14:48.889Z,7.47
2023-06-30T18:17:35.228Z,6.72
2023-06-30T18:20:22.061Z,6.05
2023-06-30T18:23:08.120Z,7.40
2023-06-30T18:25:56.997Z,6.15
2023-06-30T18:28:43.194Z,9.93
2023-06-30T18:31:29.268Z,8.63
2023-06-30T18:34:15.700Z,7.80
2023-06-30T18:37:01.659Z,6.85
2023-06-30T18:39:48.474Z,6.30
2023-06-30T18:42:34.717Z,7.30
2023-06-30T18:45:21.051Z,7.60
2023-06-30T18:48:07.118Z,8.02
2023-06-30T18:50:52.969Z,8.35
2023-06-30T18:53:38.911Z,7.68
2023-06-30T18:56:26.103Z,8.70
2023-06-30T18:59:13.114Z,32.17
2023-06-30T19:01:59.285Z,61.75
2023-06-30T19:04:46.134Z,22.92
2023-06-30T19:07:33.986Z,19.85
2023-06-30T19:10:20.930Z,8.73
2023-06-30T19:13:06.863Z,7.18
2023-06-30T19:15:54.065Z,6.22
2023-06-30T19:18:40.287Z,6.00
2023-06-30T19:21:36.675Z,9.48
2023-06-30T19:24:22.764Z,8.90
2023-06-30T19:27:09.789Z,10.88
2023-06-30T19:29:55.932Z,10.85
2023-06-30T19:32:43.095Z,8.05
2023-06-30T19:35:29.148Z,10.77
2023-06-30T19:38:15.430Z,18.13
2023-06-30T19:41:01.785Z,4.90
2023-06-30T19:43:48.376Z,7.78
2023-06-30T19:46:35.447Z,7.03
2023-06-30T19:49:21.592Z,4.63
2023-06-30T19:52:09.113Z,5.20
2023-06-30T19:54:55.150Z,9.07
2023-06-30T19:57:42.200Z,6.13
2023-06-30T20:00:28.441Z,5.93
2023-06-30T20:03:15.903Z,4.90
2023-06-30T20:06:01.787Z,6.68
2023-06-30T20:08:47.779Z,9.63
2023-06-30T20:11:33.834Z,4.82
2023-06-30T20:14:21.778Z,6.88
2023-06-30T20:17:09.123Z,6.72
2023-06-30T20:19:56.864Z,6.60
2023-06-30T20:22:43.021Z,6.25
2023-06-30T20:25:29.305Z,6.80
2023-06-30T20:28:15.514Z,6.20
2023-06-30T20:31:01.482Z,8.07
2023-06-30T20:33:47.594Z,6.95
2023-06-30T20:36:35.428Z,6.93
2023-06-30T20:39:21.279Z,6.50
2023-06-30T20:42:07.850Z,6.55
2023-06-30T20:44:54.113Z,5.63
2023-06-30T20:47:40.262Z,5.47
2023-06-30T20:50:26.087Z,6.18
2023-06-30T20:53:12.158Z,6.35
2023-06-30T20:55:59.281Z,7.80
2023-06-30T20:58:47.176Z,6.95
2023-06-30T21:01:33.253Z,8.73
2023-06-30T21:04:19.661Z,8.13
2023-06-30T21:07:06.183Z,7.18
2023-06-30T21:09:52.505Z,6.40
2023-06-30T21:12:40.161Z,5.15
2023-06-30T21:15:27.163Z,4.18
2023-06-30T21:18:14.542Z,5.60
2023-06-30T21:21:00.988Z,5.20
2023-06-30T21:23:46.764Z,5.03
2023-06-30T21:26:32.640Z,6.80
2023-06-30T21:29:18.681Z,6.78
2023-06-30T21:32:05.522Z,8.00
2023-06-30T21:34:54.634Z,8.13
2023-06-30T21:37:40.677Z,6.57
2023-06-30T21:40:26.910Z,6.30
2023-06-30T21:43:14.522Z,6.63
2023-06-30T21:46:12.958Z,6.55
2023-06-30T21:48:59.073Z,6.10
2023-06-30T21:51:44.882Z,6.82
2023-06-30T21:54:47.383Z,5.85
2023-06-30T21:57:34.634Z,6.75
2023-06-30T22:00:20.613Z,6.63
2023-06-30T22:03:07.175Z,6.65
2023-06-30T22:05:53.329Z,5.15
2023-06-30T22:08:39.468Z,5.45
2023-06-30T22:11:27.162Z,5.00
2023-06-30T22:14:13.623Z,5.13
2023-06-30T22:16:59.856Z,5.30
2023-06-30T22:19:47.724Z,5.70
2023-06-30T22:22:34.646Z,5.47
2023-06-30T22:25:21.703Z,6.22
2023-06-30T22:28:07.492Z,5.78
2023-06-30T22:30:53.326Z,5.45
2023-06-30T22:33:39.821Z,6.03
2023-06-30T22:36:25.913Z,6.10
2023-06-30T22:39:11.928Z,5.25
2023-06-30T22:41:57.903Z,4.82
2023-06-30T22:44:44.135Z,5.30
2023-06-30T22:47:31.492Z,5.00
2023-06-30T22:50:17.443Z,5.05
2023-06-30T22:53:05.638Z,5.30
2023-06-30T22:55:51.554Z,5.00
2023-06-30T22:58:37.276Z,4.88
2023-06-30T23:01:23.214Z,5.00
2023-06-30T23:04:09.191Z,5.10
2023-06-30T23:06:54.980Z,5.20
2023-06-30T23:09:41.849Z,4.95
2023-06-30T23:12:27.894Z,4.63
2023-06-30T23:15:13.967Z,4.32
2023-06-30T23:17:59.887Z,3.78
2023-06-30T23:20:48.387Z,3.90
2023-06-30T23:23:35.111Z,4.43
2023-06-30T23:26:23.039Z,4.68
2023-06-30T23:29:11.758Z,4.45
2023-06-30T23:32:07.870Z,4.60
2023-06-30T23:34:54.021Z,4.43
2023-06-30T23:37:40.700Z,4.60
2023-06-30T23:40:26.612Z,4.47
2023-06-30T23:43:12.664Z,4.78
2023-06-30T23:45:58.757Z,4.53
2023-06-30T23:48:44.793Z,4.45
2023-06-30T23:51:30.825Z,4.07
2023-06-30T23:54:16.770Z,4.13
2023-06-30T23:57:02.929Z,4.03
2023-06-30T23:59:48.742Z,5.00
